createdAt,value
2019-04-10T00:01:55.540Z,51.01
2019-04-10T00:04:25.298Z,51.28
2019-04-10T00:07:06.974Z,51.76
2019-04-10T00:09:27.394Z,51.36
2019-04-10T00:11:57.062Z,51.39
2019-04-10T00:14:26.445Z,51.58
2019-04-10T00:16:56.443Z,52.17
2019-04-10T00:19:26.772Z,52.44
2019-04-10T00:21:56.097Z,52.62
2019-04-10T00:24:26.061Z,52.22
2019-04-10T00:26:56.412Z,52.50
2019-04-10T00:29:25.878Z,52.81
2019-04-10T00:31:56.286Z,52.76
2019-04-10T00:34:25.839Z,52.80
2019-04-10T00:36:55.164Z,52.90
2019-04-10T00:39:24.560Z,52.87
2019-04-10T00:41:54.684Z,53.42
2019-04-10T00:44:25.822Z,53.73
2019-04-10T00:46:55.236Z,53.45
2019-04-10T00:49:24.602Z,53.28
2019-04-10T00:51:53.931Z,53.49
2019-04-10T00:54:23.720Z,53.94
2019-04-10T00:56:53.066Z,53.31
2019-04-10T00:59:22.393Z,53.47
2019-04-10T01:01:52.126Z,53.52
2019-04-10T01:04:22.433Z,53.72
2019-04-10T01:06:52.519Z,53.93
2019-04-10T01:09:21.933Z,54.24
2019-04-10T01:11:51.672Z,54.25
2019-04-10T01:14:21.330Z,54.07
2019-04-10T01:16:51.510Z,54.24
2019-04-10T01:19:21.160Z,54.37
2019-04-10T01:21:50.723Z,53.99
2019-04-10T01:24:20.103Z,54.18
2019-04-10T01:26:49.694Z,54.68
2019-04-10T01:29:19.664Z,54.32
2019-04-10T01:31:51.194Z,54.53
2019-04-10T01:34:21.079Z,54.42
2019-04-10T01:36:50.544Z,54.42
2019-04-10T01:39:22.624Z,54.55
2019-04-10T01:41:52.306Z,54.40
2019-04-10T01:44:22.748Z,54.70
2019-04-10T01:46:52.919Z,54.75
2019-04-10T01:49:22.598Z,54.69
2019-04-10T01:51:51.929Z,54.69
2019-04-10T01:54:21.330Z,54.94
2019-04-10T01:56:50.687Z,55.36
2019-04-10T01:59:21.699Z,54.90
2019-04-10T02:01:52.677Z,54.80
2019-04-10T02:04:22.770Z,54.89
2019-04-10T02:06:52.189Z,54.56
2019-04-10T02:09:21.565Z,54.85
2019-04-10T02:11:50.904Z,54.91
2019-04-10T02:14:20.526Z,55.05
2019-04-10T02:16:49.951Z,55.40
2019-04-10T02:19:19.345Z,54.91
2019-04-10T02:21:49.591Z,55.18
2019-04-10T02:24:19.082Z,55.17
2019-04-10T02:26:48.414Z,55.18
2019-04-10T02:29:17.752Z,54.65
2019-04-10T02:31:48.469Z,55.24
2019-04-10T02:34:19.280Z,55.47
2019-04-10T02:36:50.683Z,55.50
2019-04-10T02:39:29.817Z,55.57
2019-04-10T02:41:52.295Z,55.42
2019-04-10T02:44:22.971Z,55.60
2019-04-10T02:46:54.895Z,56.47
2019-04-10T02:49:24.687Z,56.01
2019-04-10T02:51:55.017Z,55.80
2019-04-10T02:54:25.111Z,56.32
2019-04-10T02:56:54.942Z,55.88
2019-04-10T02:59:24.445Z,56.18
2019-04-10T03:01:53.855Z,56.63
2019-04-10T03:04:24.436Z,56.62
2019-04-10T03:06:55.405Z,56.79
2019-04-10T03:09:37.104Z,56.65
2019-04-10T03:11:57.304Z,56.67
2019-04-10T03:14:28.281Z,56.61
2019-04-10T03:16:57.869Z,56.90
2019-04-10T03:19:27.697Z,56.96
2019-04-10T03:21:57.698Z,56.78
2019-04-10T03:24:27.483Z,57.53
2019-04-10T03:26:56.845Z,57.03
2019-04-10T03:29:26.183Z,57.14
2019-04-10T03:31:57.637Z,57.57
2019-04-10T03:34:31.045Z,57.50
2019-04-10T03:37:00.011Z,57.88
2019-04-10T03:39:33.342Z,57.86
2019-04-10T03:42:01.486Z,57.93
2019-04-10T03:44:32.521Z,58.27
2019-04-10T03:47:02.872Z,58.20
2019-04-10T03:49:32.221Z,58.29
2019-04-10T03:52:03.061Z,58.86
2019-04-10T03:54:32.521Z,58.88
2019-04-10T03:57:02.483Z,59.14
2019-04-10T03:59:32.648Z,59.92
2019-04-10T04:02:03.094Z,59.34
2019-04-10T04:04:33.355Z,58.97
2019-04-10T04:07:02.827Z,58.99
2019-04-10T04:09:32.165Z,59.26
2019-04-10T04:12:02.329Z,59.40
2019-04-10T04:14:32.591Z,58.87
2019-04-10T04:17:02.072Z,59.13
2019-04-10T04:19:32.389Z,59.55
2019-04-10T04:22:01.709Z,58.98
2019-04-10T04:24:31.558Z,59.44
2019-04-10T04:27:00.956Z,59.71
2019-04-10T04:29:30.630Z,59.71
2019-04-10T04:32:01.135Z,59.89
2019-04-10T04:34:31.301Z,59.92
2019-04-10T04:37:00.597Z,60.36
2019-04-10T04:39:30.523Z,60.61
2019-04-10T04:42:00.915Z,60.32
2019-04-10T04:44:31.108Z,60.44
2019-04-10T04:47:01.466Z,60.05
2019-04-10T04:49:30.792Z,59.88
2019-04-10T04:52:00.275Z,60.04
2019-04-10T04:54:29.564Z,60.23
2019-04-10T04:56:58.895Z,60.91
2019-04-10T04:59:28.231Z,60.32
2019-04-10T05:01:57.552Z,60.21
2019-04-10T05:04:27.064Z,59.48
2019-04-10T05:06:58.105Z,59.81
2019-04-10T05:09:34.281Z,59.63
2019-04-10T05:11:58.609Z,59.88
2019-04-10T05:14:29.495Z,59.59
2019-04-10T05:16:59.540Z,60.31
2019-04-10T05:19:29.742Z,60.39
2019-04-10T05:21:59.480Z,60.34
2019-04-10T05:24:30.034Z,59.90
2019-04-10T05:26:59.737Z,60.13
2019-04-10T05:29:30.802Z,60.13
2019-04-10T05:32:01.533Z,60.03
2019-04-10T05:34:30.861Z,59.94
2019-04-10T05:37:00.496Z,60.48
2019-04-10T05:39:39.806Z,60.75
2019-04-10T05:42:02.488Z,60.82
2019-04-10T05:44:32.111Z,60.94
2019-04-10T05:47:01.673Z,60.32
2019-04-10T05:49:31.134Z,60.41
2019-04-10T05:52:00.392Z,60.08
2019-04-10T05:54:29.720Z,59.82
2019-04-10T05:56:59.275Z,60.50
2019-04-10T05:59:28.606Z,60.68
2019-04-10T06:01:58.917Z,60.17
2019-04-10T06:04:29.460Z,60.83
2019-04-10T06:06:58.961Z,60.42
2019-04-10T06:09:28.950Z,59.84
2019-04-10T06:11:58.214Z,59.70
2019-04-10T06:14:28.511Z,59.82
2019-04-10T06:16:59.713Z,59.60
2019-04-10T06:19:28.906Z,59.99
2019-04-10T06:21:58.442Z,60.19
2019-04-10T06:24:27.976Z,60.07
2019-04-10T06:26:59.594Z,59.29
2019-04-10T06:29:29.257Z,58.95
2019-04-10T06:31:58.592Z,58.13
2019-04-10T06:34:28.018Z,58.43
2019-04-10T06:36:57.748Z,58.00
2019-04-10T06:39:27.109Z,57.56
2019-04-10T06:41:56.458Z,58.05
2019-04-10T06:44:25.936Z,58.31
2019-04-10T06:46:55.288Z,57.78
2019-04-10T06:49:24.933Z,57.97
2019-04-10T06:51:54.220Z,57.39
2019-04-10T06:54:24.510Z,56.59
2019-04-10T06:56:54.554Z,56.69
2019-04-10T06:59:26.094Z,56.75
2019-04-10T07:01:57.049Z,56.57
2019-04-10T07:04:26.650Z,56.34
2019-04-10T07:07:03.049Z,56.80
2019-04-10T07:09:27.611Z,56.75
2019-04-10T07:12:01.359Z,56.37
2019-04-10T07:14:29.858Z,56.12
2019-04-10T07:17:05.062Z,56.46
2019-04-10T07:19:30.580Z,55.65
2019-04-10T07:22:01.457Z,58.52
2019-04-10T07:24:36.941Z,55.94
2019-04-10T07:27:04.619Z,56.54
2019-04-10T07:29:34.220Z,55.64
2019-04-10T07:32:07.769Z,55.51
2019-04-10T07:34:35.989Z,56.36
2019-04-10T07:37:05.739Z,55.79
2019-04-10T07:39:35.331Z,55.59
2019-04-10T07:42:04.622Z,54.88
2019-04-10T07:44:34.181Z,55.00
2019-04-10T07:47:04.703Z,54.72
2019-04-10T07:49:34.976Z,54.44
2019-04-10T07:52:05.360Z,54.19
2019-04-10T07:54:35.674Z,54.34
2019-04-10T07:57:05.003Z,53.59
2019-04-10T07:59:35.485Z,53.79
2019-04-10T08:02:07.364Z,54.44
2019-04-10T08:04:37.311Z,53.83
2019-04-10T08:07:07.310Z,54.06
2019-04-10T08:09:37.660Z,54.26
2019-04-10T08:12:07.276Z,54.76
2019-04-10T08:14:37.841Z,59.54
2019-04-10T08:17:07.953Z,54.01
2019-04-10T08:19:37.334Z,56.25
2019-04-10T08:22:06.682Z,52.64
2019-04-10T08:24:37.107Z,53.37
2019-04-10T08:27:07.381Z,56.99
2019-04-10T08:29:36.872Z,52.59
2019-04-10T08:32:06.227Z,52.77
2019-04-10T08:34:35.807Z,53.96
2019-04-10T08:37:05.364Z,52.67
2019-04-10T08:39:41.683Z,52.66
2019-04-10T08:42:07.057Z,53.47
2019-04-10T08:44:36.401Z,52.84
2019-04-10T08:47:06.779Z,52.63
2019-04-10T08:49:36.772Z,52.31
2019-04-10T08:52:06.276Z,52.12
2019-04-10T08:54:36.378Z,52.50
2019-04-10T08:57:07.328Z,52.64
2019-04-10T08:59:36.915Z,52.50
2019-04-10T09:02:06.571Z,52.32
2019-04-10T09:04:36.953Z,59.71
2019-04-10T09:07:06.883Z,56.69
2019-04-10T09:09:37.416Z,54.53
2019-04-10T09:12:07.322Z,59.71
2019-04-10T09:14:37.187Z,50.55
2019-04-10T09:17:07.038Z,50.19
2019-04-10T09:19:36.369Z,50.88
2019-04-10T09:22:06.012Z,50.80
2019-04-10T09:24:36.225Z,59.43
2019-04-10T09:27:05.672Z,53.80
2019-04-10T09:29:36.118Z,49.26
2019-04-10T09:32:06.404Z,49.51
2019-04-10T09:34:36.038Z,49.90
2019-04-10T09:37:06.017Z,49.28
2019-04-10T09:39:35.933Z,49.76
2019-04-10T09:42:06.688Z,50.14
2019-04-10T09:44:36.355Z,48.98
2019-04-10T09:47:07.693Z,49.74
2019-04-10T09:49:41.994Z,53.64
2019-04-10T09:52:08.130Z,57.22
2019-04-10T09:54:38.230Z,49.36
2019-04-10T09:57:07.830Z,56.17
2019-04-10T09:59:39.674Z,45.14
2019-04-10T10:02:09.240Z,50.97
2019-04-10T10:04:39.743Z,44.24
2019-04-10T10:07:10.323Z,45.74
2019-04-10T10:09:40.911Z,46.06
2019-04-10T10:12:11.568Z,46.39
2019-04-10T10:14:42.165Z,46.59
2019-04-10T10:17:12.595Z,46.90
2019-04-10T10:19:42.604Z,45.27
2019-04-10T10:22:12.733Z,45.42
2019-04-10T10:24:42.643Z,43.11
2019-04-10T10:27:11.945Z,44.25
2019-04-10T10:29:41.931Z,43.71
2019-04-10T10:32:11.216Z,43.34
2019-04-10T10:34:40.831Z,43.18
2019-04-10T10:37:10.528Z,41.75
2019-04-10T10:39:41.084Z,41.41
2019-04-10T10:42:11.580Z,41.84
2019-04-10T10:44:41.011Z,41.15
2019-04-10T10:47:10.363Z,41.36
2019-04-10T10:49:40.243Z,40.44
2019-04-10T10:52:09.765Z,41.29
2019-04-10T10:54:39.098Z,40.43
2019-04-10T10:57:09.030Z,40.22
2019-04-10T10:59:38.369Z,40.96
2019-04-10T11:02:08.570Z,40.01
2019-04-10T11:04:37.950Z,39.58
2019-04-10T11:07:08.618Z,39.32
2019-04-10T11:09:38.492Z,38.23
2019-04-10T11:12:07.908Z,38.83
2019-04-10T11:14:37.493Z,38.38
2019-04-10T11:17:06.823Z,37.57
2019-04-10T11:19:37.139Z,37.46
2019-04-10T11:22:07.410Z,36.46
2019-04-10T11:24:38.295Z,34.04
2019-04-10T11:27:08.805Z,33.13
2019-04-10T11:29:39.060Z,32.69
2019-04-10T11:32:09.337Z,31.10
2019-04-10T11:34:38.699Z,30.26
2019-04-10T11:37:23.089Z,30.98
2019-04-10T11:39:43.267Z,28.85
2019-04-10T11:42:10.208Z,27.66
2019-04-10T11:44:41.698Z,26.65
2019-04-10T11:47:10.658Z,25.91
2019-04-10T11:49:43.028Z,25.20
2019-04-10T11:52:13.937Z,24.54
2019-04-10T11:54:44.919Z,23.92
2019-04-10T11:57:16.156Z,23.13
2019-04-10T11:59:48.457Z,22.66
2019-04-10T12:02:20.418Z,21.25
2019-04-10T12:04:53.887Z,21.81
2019-04-10T12:12:19.922Z,20.54
2019-04-10T12:14:50.048Z,19.90
2019-04-10T12:17:20.114Z,20.15
2019-04-10T12:19:49.455Z,19.28
2019-04-10T12:22:19.166Z,18.78
2019-04-10T12:24:49.943Z,18.69
2019-04-10T12:27:19.688Z,17.89
2019-04-10T12:29:49.033Z,17.98
2019-04-10T12:32:18.865Z,17.93
2019-04-10T12:34:48.707Z,17.62
2019-04-10T12:37:18.215Z,18.36
2019-04-10T12:39:47.615Z,17.52
2019-04-10T12:42:17.204Z,17.44
2019-04-10T12:44:47.180Z,17.28
2019-04-10T12:47:17.526Z,16.89
2019-04-10T12:49:47.724Z,16.75
2019-04-10T12:52:17.020Z,16.70
2019-04-10T12:54:47.044Z,16.11
2019-04-10T12:57:17.007Z,16.00
2019-04-10T12:59:47.619Z,15.73
2019-04-10T13:02:17.138Z,16.27
2019-04-10T13:04:47.078Z,20.87
2019-04-10T13:07:16.381Z,21.77
2019-04-10T13:09:46.348Z,23.98
2019-04-10T13:12:15.971Z,23.57
2019-04-10T13:14:46.443Z,25.43
2019-04-10T13:17:16.526Z,26.66
2019-04-10T13:19:45.837Z,21.34
2019-04-10T13:22:15.921Z,18.30
2019-04-10T13:24:45.892Z,17.45
2019-04-10T13:27:15.404Z,18.27
2019-04-10T13:29:44.739Z,21.94
2019-04-10T13:32:14.067Z,18.93
2019-04-10T13:34:43.792Z,16.71
2019-04-10T13:37:13.364Z,16.14
2019-04-10T13:39:43.320Z,15.64
2019-04-10T13:42:12.800Z,15.61
2019-04-10T13:44:42.521Z,15.66
2019-04-10T13:47:11.916Z,15.52
2019-04-10T13:49:42.047Z,15.43
2019-04-10T13:52:12.005Z,15.22
2019-04-10T13:54:41.306Z,14.70
2019-04-10T13:57:11.807Z,15.15
2019-04-10T13:59:41.480Z,15.29
2019-04-10T14:02:13.164Z,16.01
2019-04-10T14:04:43.495Z,16.06
2019-04-10T14:07:13.063Z,16.17
2019-04-10T14:09:48.076Z,16.02
2019-04-10T14:12:14.467Z,15.20
2019-04-10T14:14:44.616Z,15.50
2019-04-10T14:17:13.943Z,15.37
2019-04-10T14:19:43.274Z,15.57
2019-04-10T14:22:13.556Z,16.09
2019-04-10T14:24:46.404Z,16.29
2019-04-10T14:27:18.636Z,15.07
2019-04-10T14:29:49.063Z,15.47
2019-04-10T14:32:20.793Z,15.68
2019-04-10T14:34:50.490Z,16.02
2019-04-10T14:37:21.120Z,16.11
2019-04-10T14:39:51.566Z,16.80
2019-04-10T14:42:21.054Z,17.36
2019-04-10T14:44:50.407Z,17.11
2019-04-10T14:47:20.308Z,17.37
2019-04-10T14:49:49.692Z,16.37
2019-04-10T14:52:19.037Z,16.39
2019-04-10T14:54:48.369Z,17.28
2019-04-10T14:57:18.845Z,16.21
2019-04-10T14:59:49.253Z,17.40
2019-04-10T15:02:18.895Z,16.53
2019-04-10T15:04:49.064Z,16.59
2019-04-10T15:07:18.434Z,16.74
2019-04-10T15:09:47.782Z,17.44
2019-04-10T15:12:18.470Z,17.75
2019-04-10T15:14:47.978Z,17.83
2019-04-10T15:17:18.921Z,18.52
2019-04-10T15:19:50.605Z,18.93
2019-04-10T15:22:19.986Z,19.24
2019-04-10T15:24:49.663Z,18.69
2019-04-10T15:27:19.484Z,18.95
2019-04-10T15:29:49.142Z,19.64
2019-04-10T15:32:18.525Z,20.55
2019-04-10T15:34:48.377Z,20.38
2019-04-10T15:37:18.062Z,20.50
2019-04-10T15:39:47.400Z,20.86
2019-04-10T15:42:16.732Z,21.45
2019-04-10T15:44:46.140Z,23.62
2019-04-10T15:47:19.651Z,22.01
2019-04-10T15:49:47.681Z,21.67
2019-04-10T15:52:17.703Z,22.16
2019-04-10T15:54:47.924Z,22.34
2019-04-10T15:57:18.442Z,22.84
2019-04-10T15:59:48.341Z,23.25
2019-04-10T16:02:17.837Z,27.43
2019-04-10T16:04:47.231Z,28.02
2019-04-10T16:07:16.624Z,35.11
2019-04-10T16:09:50.738Z,28.61
2019-04-10T16:12:18.954Z,25.27
2019-04-10T16:14:48.636Z,25.56
2019-04-10T16:17:19.719Z,25.86
2019-04-10T16:19:59.789Z,25.69
2019-04-10T16:22:36.745Z,26.52
2019-04-10T16:25:09.596Z,26.45
2019-04-10T16:27:39.132Z,26.98
2019-04-10T16:30:10.568Z,27.25
2019-04-10T16:32:39.896Z,27.08
2019-04-10T16:35:09.386Z,26.84
2019-04-10T16:37:39.847Z,27.54
2019-04-10T16:40:10.476Z,27.98
2019-04-10T16:42:41.683Z,28.51
2019-04-10T16:45:11.473Z,28.49
2019-04-10T16:47:41.954Z,28.61
2019-04-10T16:50:11.668Z,29.18
2019-04-10T16:52:41.064Z,29.47
2019-04-10T16:55:10.809Z,30.10
2019-04-10T16:57:40.467Z,30.47
2019-04-10T17:00:14.183Z,30.46
2019-04-10T17:02:42.459Z,31.11
2019-04-10T17:05:12.405Z,31.32
2019-04-10T17:07:41.794Z,31.65
2019-04-10T17:10:18.205Z,30.99
2019-04-10T17:12:42.796Z,31.35
2019-04-10T17:15:12.407Z,31.61
2019-04-10T17:17:42.314Z,32.29
2019-04-10T17:20:11.953Z,32.54
2019-04-10T17:22:45.270Z,32.45
2019-04-10T17:25:13.758Z,32.83
2019-04-10T17:27:43.779Z,32.91
2019-04-10T17:30:13.605Z,32.86
2019-04-10T17:32:42.962Z,32.67
2019-04-10T17:35:13.673Z,33.09
2019-04-10T17:37:43.028Z,33.50
2019-04-10T17:40:28.818Z,33.80
2019-04-10T17:42:46.396Z,34.12
2019-04-10T17:45:15.802Z,33.80
2019-04-10T17:47:45.529Z,34.26
2019-04-10T17:50:18.234Z,33.90
2019-04-10T17:52:49.056Z,33.88
2019-04-10T17:55:19.621Z,34.22
2019-04-10T17:57:49.063Z,34.23
2019-04-10T18:00:27.291Z,35.10
2019-04-10T18:02:57.193Z,34.28
2019-04-10T18:05:26.652Z,34.55
2019-04-10T18:07:56.571Z,34.33
2019-04-10T18:10:34.386Z,34.49
2019-04-10T18:12:57.084Z,34.44
2019-04-10T18:15:28.287Z,34.42
2019-04-10T18:17:57.735Z,34.66
2019-04-10T18:20:28.185Z,34.97
2019-04-10T18:22:58.736Z,35.44
2019-04-10T18:25:28.202Z,34.97
2019-04-10T18:27:57.533Z,35.37
2019-04-10T18:30:27.987Z,35.27
2019-04-10T18:32:58.165Z,35.34
2019-04-10T18:35:27.608Z,35.45
2019-04-10T18:37:58.301Z,35.62
2019-04-10T18:40:28.890Z,35.14
2019-04-10T18:42:59.559Z,35.13
2019-04-10T18:45:31.006Z,35.36
2019-04-10T18:48:00.628Z,35.39
2019-04-10T18:50:32.145Z,35.74
2019-04-10T18:53:01.747Z,35.60
2019-04-10T18:55:32.198Z,36.02
2019-04-10T18:58:03.650Z,36.35
2019-04-10T19:00:51.252Z,36.70
2019-04-10T19:03:23.506Z,36.96
2019-04-10T19:05:58.338Z,36.75
2019-04-10T19:08:28.155Z,36.89
2019-04-10T19:11:10.822Z,37.08
2019-04-10T19:13:28.912Z,37.15
2019-04-10T19:15:59.210Z,36.76
2019-04-10T19:18:29.817Z,37.30
2019-04-10T19:21:00.247Z,37.17
2019-04-10T19:23:30.753Z,37.33
2019-04-10T19:26:00.249Z,37.29
2019-04-10T19:28:36.002Z,37.31
2019-04-10T19:31:15.753Z,37.49
2019-04-10T19:33:39.466Z,37.74
2019-04-10T19:36:09.816Z,38.12
2019-04-10T19:38:41.179Z,37.82
2019-04-10T19:41:21.313Z,38.15
2019-04-10T19:43:42.202Z,38.31
2019-04-10T19:46:12.403Z,38.53
2019-04-10T19:48:41.845Z,38.13
2019-04-10T19:51:12.108Z,38.54
2019-04-10T19:53:41.600Z,38.64
2019-04-10T19:56:11.051Z,38.80
2019-04-10T19:58:40.377Z,39.32
2019-04-10T20:01:10.855Z,39.24
2019-04-10T20:03:40.200Z,39.48
2019-04-10T20:06:09.614Z,39.62
2019-04-10T20:08:39.823Z,39.88
2019-04-10T20:11:09.364Z,40.19
2019-04-10T20:13:38.865Z,40.50
2019-04-10T20:16:09.108Z,40.77
2019-04-10T20:18:39.039Z,40.73
2019-04-10T20:21:08.441Z,40.96
2019-04-10T20:23:38.351Z,41.46
2019-04-10T20:26:07.746Z,41.23
2019-04-10T20:28:37.087Z,41.35
2019-04-10T20:31:08.920Z,41.50
2019-04-10T20:33:38.878Z,41.72
2019-04-10T20:36:08.919Z,41.81
2019-04-10T20:38:38.798Z,41.83
2019-04-10T20:41:09.152Z,41.93
2019-04-10T20:43:39.380Z,41.90
2019-04-10T20:46:09.816Z,41.86
2019-04-10T20:48:40.312Z,41.41
2019-04-10T20:51:09.705Z,41.96
2019-04-10T20:53:40.231Z,42.24
2019-04-10T20:56:10.427Z,42.08
2019-04-10T20:58:40.285Z,42.34
2019-04-10T21:01:10.399Z,42.37
2019-04-10T21:03:40.292Z,42.56
2019-04-10T21:06:09.549Z,42.24
2019-04-10T21:08:38.873Z,42.50
2019-04-10T21:11:09.523Z,42.42
2019-04-10T21:13:38.829Z,42.59
2019-04-10T21:16:09.179Z,42.60
2019-04-10T21:18:39.762Z,42.45
2019-04-10T21:21:10.274Z,43.15
2019-04-10T21:23:40.337Z,42.97
2019-04-10T21:26:10.245Z,43.32
2019-04-10T21:28:39.699Z,43.12
2019-04-10T21:31:11.697Z,43.21
2019-04-10T21:33:59.035Z,43.15
2019-04-10T21:36:28.496Z,43.57
2019-04-10T21:38:57.865Z,43.66
2019-04-10T21:41:27.155Z,43.76
2019-04-10T21:43:56.473Z,43.65
2019-04-10T21:46:28.467Z,43.98
2019-04-10T21:48:57.905Z,43.84
2019-04-10T21:51:28.538Z,44.23
2019-04-10T21:53:57.993Z,43.83
2019-04-10T21:56:27.293Z,43.99
2019-04-10T21:58:57.383Z,44.38
2019-04-10T22:01:26.733Z,44.63
2019-04-10T22:03:58.432Z,44.96
2019-04-10T22:06:30.192Z,45.46
2019-04-10T22:09:01.881Z,45.73
2019-04-10T22:11:33.318Z,45.71
2019-04-10T22:14:02.694Z,46.05
2019-04-10T22:16:32.015Z,46.44
2019-04-10T22:19:01.599Z,46.35
2019-04-10T22:21:31.277Z,46.68
2019-04-10T22:24:00.969Z,47.12
2019-04-10T22:26:30.369Z,47.03
2019-04-10T22:28:59.781Z,47.15
2019-04-10T22:31:29.190Z,47.35
2019-04-10T22:33:58.875Z,48.00
2019-04-10T22:36:29.140Z,47.85
2019-04-10T22:38:58.843Z,48.04
2019-04-10T22:41:30.838Z,48.29
2019-04-10T22:43:59.146Z,48.27
2019-04-10T22:46:29.949Z,48.32
2019-04-10T22:48:59.361Z,48.30
2019-04-10T22:51:29.101Z,48.92
2019-04-10T22:53:58.767Z,48.76
2019-04-10T22:56:28.101Z,49.07
2019-04-10T22:58:57.536Z,49.53
2019-04-10T23:01:27.110Z,49.88
2019-04-10T23:03:57.954Z,49.75
2019-04-10T23:06:27.273Z,49.75
2019-04-10T23:08:56.593Z,49.95
2019-04-10T23:11:31.711Z,50.01
2019-04-10T23:13:58.450Z,50.37
2019-04-10T23:16:28.355Z,50.17
2019-04-10T23:18:58.209Z,50.21
2019-04-10T23:21:28.584Z,50.97
2019-04-10T23:23:59.019Z,51.14
2019-04-10T23:26:29.139Z,51.37
2019-04-10T23:28:58.550Z,51.87
2019-04-10T23:31:27.955Z,52.26
2019-04-10T23:33:57.287Z,51.53
2019-04-10T23:36:26.604Z,52.08
2019-04-10T23:38:55.927Z,52.65
2019-04-10T23:41:25.509Z,52.54
2019-04-10T23:43:55.750Z,52.79
2019-04-10T23:46:26.319Z,52.63
2019-04-10T23:48:55.890Z,52.38
2019-04-10T23:51:25.292Z,52.96
2019-04-10T23:53:55.101Z,52.87
2019-04-10T23:56:24.509Z,52.98
2019-04-10T23:58:54.145Z,52.80
